createdAt,value
2022-12-26T00:00:12.393Z,11
2022-12-26T00:03:12.986Z,10.9
2022-12-26T00:06:11.810Z,10.9
2022-12-26T00:09:11.842Z,10.9
2022-12-26T00:12:11.825Z,10.9
2022-12-26T00:15:11.921Z,10.9
2022-12-26T00:18:11.816Z,10.8
2022-12-26T00:21:11.834Z,10.8
2022-12-26T00:24:11.783Z,10.8
2022-12-26T00:27:11.827Z,10.6
2022-12-26T00:30:11.965Z,10.8
2022-12-26T00:33:11.898Z,10.8
2022-12-26T00:36:11.762Z,10.8
2022-12-26T00:39:11.867Z,10.8
2022-12-26T00:42:11.855Z,10.8
2022-12-26T00:45:11.756Z,10.6
2022-12-26T00:48:11.784Z,10.6
2022-12-26T00:51:11.837Z,10.6
2022-12-26T00:54:11.832Z,10.6
2022-12-26T00:57:11.902Z,10.6
2022-12-26T01:00:11.869Z,10.6
2022-12-26T01:03:12.737Z,10.6
2022-12-26T01:06:11.808Z,10.5
2022-12-26T01:09:11.849Z,10.5
2022-12-26T01:12:11.800Z,10.5
2022-12-26T01:15:11.867Z,10.5
2022-12-26T01:18:11.869Z,10.4
2022-12-26T01:21:11.805Z,10.4
2022-12-26T01:24:12.001Z,10.4
2022-12-26T01:27:11.853Z,10.3
2022-12-26T01:30:11.856Z,10.3
2022-12-26T01:33:11.786Z,10.3
2022-12-26T01:36:11.912Z,10.3
2022-12-26T01:39:11.840Z,10.3
2022-12-26T01:42:11.797Z,10.4
2022-12-26T01:45:11.855Z,10.3
2022-12-26T01:48:11.828Z,10.3
2022-12-26T01:51:11.832Z,10.3
2022-12-26T01:54:54.012Z,10.1
2022-12-26T01:57:11.857Z,10.1
2022-12-26T02:00:12.003Z,10
2022-12-26T02:03:12.358Z,10
2022-12-26T02:06:11.900Z,10
2022-12-26T02:09:11.915Z,10
2022-12-26T02:12:49.747Z,10
2022-12-26T02:15:11.844Z,10
2022-12-26T02:18:11.884Z,9.9
2022-12-26T02:21:11.804Z,9.9
2022-12-26T02:24:11.879Z,9.8
2022-12-26T02:27:11.799Z,9.6
2022-12-26T02:30:11.843Z,9.5
2022-12-26T02:33:11.801Z,9.5
2022-12-26T02:36:11.844Z,9.4
2022-12-26T02:39:53.410Z,9.5
2022-12-26T02:42:12.059Z,9.4
2022-12-26T02:45:11.888Z,9.5
2022-12-26T02:48:11.854Z,9.5
2022-12-26T02:51:11.833Z,9.4
2022-12-26T02:54:11.821Z,9.4
2022-12-26T02:57:11.975Z,9.5
2022-12-26T03:00:11.942Z,9.5
2022-12-26T03:03:12.397Z,9.5
2022-12-26T03:06:11.836Z,9.4
2022-12-26T03:09:11.812Z,9.4
2022-12-26T03:12:11.865Z,9.4
2022-12-26T03:15:12.118Z,9.4
2022-12-26T03:18:12.285Z,9.4
2022-12-26T03:21:11.920Z,9.4
2022-12-26T03:24:11.845Z,9.4
2022-12-26T03:27:11.905Z,9.4
2022-12-26T03:30:11.873Z,9.4
2022-12-26T03:33:11.816Z,9.4
2022-12-26T03:36:11.862Z,9.4
2022-12-26T03:39:11.840Z,9.4
2022-12-26T03:42:11.889Z,9.4
2022-12-26T03:45:11.893Z,9.4
2022-12-26T03:48:11.833Z,9.4
2022-12-26T03:51:11.808Z,9.3
2022-12-26T03:54:11.905Z,9.3
2022-12-26T03:57:11.813Z,9.3
2022-12-26T04:00:12.256Z,9.3
2022-12-26T04:03:11.955Z,9.1
2022-12-26T04:06:11.844Z,9.1
2022-12-26T04:09:11.847Z,9.1
2022-12-26T04:12:11.797Z,9.3
2022-12-26T04:15:11.827Z,9.3
2022-12-26T04:18:11.848Z,9.3
2022-12-26T04:21:11.807Z,9.3
2022-12-26T04:24:12.037Z,9.1
2022-12-26T04:27:11.873Z,9.1
2022-12-26T04:30:11.835Z,9
2022-12-26T04:33:11.875Z,8.9
2022-12-26T04:36:11.921Z,8.9
2022-12-26T04:39:11.758Z,8.9
2022-12-26T04:42:11.925Z,8.9
2022-12-26T04:45:11.775Z,9
2022-12-26T04:48:11.887Z,9
2022-12-26T04:51:11.777Z,9.1
2022-12-26T04:54:12.916Z,9.3
2022-12-26T04:57:11.880Z,9.3
2022-12-26T05:00:12.826Z,9.4
2022-12-26T05:03:19.643Z,9.5
2022-12-26T05:06:11.850Z,9.5
2022-12-26T05:09:11.796Z,9.6
2022-12-26T05:12:11.825Z,9.6
2022-12-26T05:15:11.904Z,9.6
2022-12-26T05:18:11.815Z,9.8
2022-12-26T05:21:11.852Z,9.8
2022-12-26T05:24:11.951Z,9.6
2022-12-26T05:27:12.463Z,9.5
2022-12-26T05:30:11.900Z,9.4
2022-12-26T05:33:11.839Z,9.3
2022-12-26T05:36:11.743Z,9.4
2022-12-26T05:39:11.886Z,9.4
2022-12-26T05:42:11.880Z,9.5
2022-12-26T05:45:11.815Z,9.5
2022-12-26T05:48:11.839Z,9.6
2022-12-26T05:51:11.846Z,9.6
2022-12-26T05:54:12.021Z,9.8
2022-12-26T05:57:11.797Z,9.8
2022-12-26T06:00:11.927Z,9.8
2022-12-26T06:03:12.818Z,9.8
2022-12-26T06:06:11.892Z,9.8
2022-12-26T06:09:12.376Z,9.9
2022-12-26T06:12:11.794Z,9.9
2022-12-26T06:15:11.878Z,9.9
2022-12-26T06:18:11.815Z,9.9
2022-12-26T06:21:11.816Z,9.9
2022-12-26T06:24:11.892Z,9.9
2022-12-26T06:27:11.770Z,9.9
2022-12-26T06:30:11.865Z,9.9
2022-12-26T06:33:11.860Z,9.9
2022-12-26T06:36:11.835Z,9.9
2022-12-26T06:39:11.902Z,9.9
2022-12-26T06:42:11.929Z,10
2022-12-26T06:45:11.780Z,10
2022-12-26T06:48:11.858Z,10
2022-12-26T06:51:11.804Z,10
2022-12-26T06:54:11.784Z,10
2022-12-26T06:57:11.739Z,10
2022-12-26T07:00:12.254Z,10
2022-12-26T07:03:12.307Z,10
2022-12-26T07:06:11.866Z,10
2022-12-26T07:09:11.863Z,10
2022-12-26T07:12:11.823Z,10
2022-12-26T07:15:13.415Z,10
2022-12-26T07:18:11.782Z,10
2022-12-26T07:21:11.836Z,10
2022-12-26T07:24:11.762Z,10
2022-12-26T07:27:11.794Z,10
2022-12-26T07:30:11.898Z,10
2022-12-26T07:33:11.879Z,10
2022-12-26T07:36:11.973Z,10
2022-12-26T07:39:11.882Z,10
2022-12-26T07:42:11.938Z,9.9
2022-12-26T07:45:11.968Z,9.9
2022-12-26T07:48:11.927Z,9.9
2022-12-26T07:51:11.871Z,10
2022-12-26T07:54:21.523Z,10
2022-12-26T07:57:59.798Z,10
2022-12-26T08:00:12.181Z,10
2022-12-26T08:03:20.937Z,10
2022-12-26T08:06:12.031Z,10
2022-12-26T08:09:11.879Z,10
2022-12-26T08:12:11.892Z,10
2022-12-26T08:15:11.882Z,10
2022-12-26T08:18:12.016Z,10
2022-12-26T08:21:12.124Z,10
2022-12-26T08:24:11.899Z,10
2022-12-26T08:27:11.962Z,10
2022-12-26T08:30:12.063Z,10
2022-12-26T08:33:11.873Z,10
2022-12-26T08:36:12.002Z,10
2022-12-26T08:39:12.223Z,10.1
2022-12-26T08:42:11.884Z,10.1
2022-12-26T08:45:12.025Z,10.1
2022-12-26T08:48:12.066Z,10.1
2022-12-26T08:51:11.995Z,10.3
2022-12-26T08:54:11.899Z,10.3
2022-12-26T08:57:12.150Z,10.3
2022-12-26T09:00:12.032Z,10.3
2022-12-26T09:03:12.305Z,10.4
2022-12-26T09:06:18.204Z,10.3
2022-12-26T09:09:11.899Z,10.4
2022-12-26T09:12:11.859Z,10.4
2022-12-26T09:15:11.908Z,10.4
2022-12-26T09:18:12.192Z,10.5
2022-12-26T09:21:11.895Z,10.5
2022-12-26T09:24:12.081Z,10.5
2022-12-26T09:27:11.899Z,10.5
2022-12-26T09:30:12.090Z,10.5
2022-12-26T09:33:11.971Z,10.6
2022-12-26T09:36:23.644Z,10.6
2022-12-26T09:39:11.933Z,10.8
2022-12-26T09:42:11.885Z,10.9
2022-12-26T09:45:11.908Z,11
2022-12-26T09:48:11.855Z,11
2022-12-26T09:51:11.894Z,11.1
2022-12-26T09:54:12.270Z,11.1
2022-12-26T09:57:23.699Z,11.3
2022-12-26T10:00:12.024Z,11.5
2022-12-26T10:03:11.857Z,11.6
2022-12-26T10:06:11.884Z,11.8
2022-12-26T10:09:12.016Z,11.9
2022-12-26T10:12:12.040Z,12
2022-12-26T10:15:11.893Z,12.1
2022-12-26T10:18:12.116Z,12
2022-12-26T10:21:11.884Z,12.1
2022-12-26T10:24:11.881Z,12.1
2022-12-26T10:27:12.026Z,12.2
2022-12-26T10:30:11.959Z,12.4
2022-12-26T10:33:11.877Z,12.5
2022-12-26T10:36:11.845Z,12.6
2022-12-26T10:39:12.113Z,12.5
2022-12-26T10:42:11.785Z,12.5
2022-12-26T10:45:12.133Z,12.5
2022-12-26T10:48:11.837Z,12.8
2022-12-26T10:51:11.896Z,13
2022-12-26T10:54:11.971Z,13.3
2022-12-26T10:57:12.217Z,13.5
2022-12-26T11:00:12.246Z,13.8
2022-12-26T11:03:13.159Z,13.8
2022-12-26T11:06:21.195Z,13.8
2022-12-26T11:09:12.246Z,13.8
2022-12-26T11:12:11.946Z,13.6
2022-12-26T11:15:12.207Z,13.6
2022-12-26T11:18:12.268Z,13.6
2022-12-26T11:21:19.696Z,13.9
2022-12-26T11:24:11.848Z,13.9
2022-12-26T11:27:19.474Z,13.8
2022-12-26T11:30:12.222Z,14.9
2022-12-26T11:33:21.405Z,16.9
2022-12-26T11:36:12.146Z,17.4
2022-12-26T11:39:12.095Z,18.3
2022-12-26T11:42:12.318Z,18.8
2022-12-26T11:45:12.141Z,19.9
2022-12-26T11:48:12.043Z,20.4
2022-12-26T11:51:11.940Z,19.9
2022-12-26T11:54:12.143Z,20.5
2022-12-26T11:57:12.282Z,18.5
2022-12-26T12:00:11.893Z,16.8
2022-12-26T12:03:13.440Z,15.5
2022-12-26T12:06:12.000Z,14.5
2022-12-26T12:09:17.474Z,13.8
2022-12-26T12:12:12.259Z,13.4
2022-12-26T12:15:11.846Z,13.1
2022-12-26T12:18:11.847Z,13
2022-12-26T12:21:12.181Z,12.9
2022-12-26T12:24:12.049Z,12.8
2022-12-26T12:27:16.717Z,12.6
2022-12-26T12:30:11.910Z,12.5
2022-12-26T12:33:12.281Z,12.4
2022-12-26T12:36:12.363Z,12.2
2022-12-26T12:39:12.289Z,12.1
2022-12-26T12:42:12.307Z,12.2
2022-12-26T12:45:12.310Z,12.5
2022-12-26T12:48:12.042Z,12.6
2022-12-26T12:51:12.222Z,12.9
2022-12-26T12:54:11.855Z,13.3
2022-12-26T12:57:11.878Z,13.3
2022-12-26T13:00:11.963Z,13
2022-12-26T13:03:12.731Z,12.9
2022-12-26T13:06:11.831Z,12.8
2022-12-26T13:09:12.150Z,12.6
2022-12-26T13:12:11.777Z,12.5
2022-12-26T13:15:11.991Z,12.5
2022-12-26T13:18:11.859Z,12.6
2022-12-26T13:21:11.864Z,12.6
2022-12-26T13:24:11.873Z,13.4
2022-12-26T13:27:11.809Z,13.6
2022-12-26T13:30:12.028Z,13.4
2022-12-26T13:33:11.845Z,13
2022-12-26T13:36:12.423Z,12.8
2022-12-26T13:39:11.905Z,12.6
2022-12-26T13:42:11.840Z,12.6
2022-12-26T13:45:11.855Z,12.6
2022-12-26T13:48:12.345Z,12.5
2022-12-26T13:51:11.821Z,12.4
2022-12-26T13:54:11.832Z,12.4
2022-12-26T13:57:11.902Z,12.6
2022-12-26T14:00:12.042Z,12.5
2022-12-26T14:03:32.392Z,12.2
2022-12-26T14:06:11.878Z,12.1
2022-12-26T14:09:11.873Z,11.9
2022-12-26T14:12:11.798Z,11.8
2022-12-26T14:15:11.952Z,11.6
2022-12-26T14:18:11.876Z,11.5
2022-12-26T14:21:12.524Z,11.5
2022-12-26T14:24:12.316Z,11.4
2022-12-26T14:27:11.807Z,11.3
2022-12-26T14:30:11.973Z,11
2022-12-26T14:33:13.085Z,10.8
2022-12-26T14:36:11.844Z,10.6
2022-12-26T14:39:12.291Z,10.5
2022-12-26T14:42:11.822Z,10.4
2022-12-26T14:45:11.879Z,10.3
2022-12-26T14:48:11.939Z,10.3
2022-12-26T14:51:11.883Z,10.3
2022-12-26T14:54:11.875Z,10.3
2022-12-26T14:57:11.851Z,10.4
2022-12-26T15:00:16.384Z,10.1
2022-12-26T15:03:12.343Z,9.9
2022-12-26T15:06:11.875Z,9.5
2022-12-26T15:09:11.906Z,9.3
2022-12-26T15:12:11.842Z,9
2022-12-26T15:15:11.816Z,8.9
2022-12-26T15:18:11.807Z,8.8
2022-12-26T15:21:11.822Z,8.6
2022-12-26T15:24:11.777Z,8.5
2022-12-26T15:27:11.747Z,8.5
2022-12-26T15:30:11.980Z,8.4
2022-12-26T15:33:11.831Z,8.4
2022-12-26T15:36:14.991Z,8.4
2022-12-26T15:39:11.776Z,8.3
2022-12-26T15:42:11.867Z,8.3
2022-12-26T15:45:11.849Z,8.3
2022-12-26T15:48:11.856Z,8.3
2022-12-26T15:51:11.854Z,8
2022-12-26T15:54:11.796Z,7.9
2022-12-26T15:57:11.815Z,7.7
2022-12-26T16:00:11.972Z,7.5
2022-12-26T16:03:12.151Z,7.4
2022-12-26T16:06:11.858Z,7.1
2022-12-26T16:09:11.824Z,7
2022-12-26T16:12:11.824Z,6.9
2022-12-26T16:15:11.940Z,6.7
2022-12-26T16:18:11.724Z,6.6
2022-12-26T16:21:11.927Z,6.6
2022-12-26T16:24:11.845Z,6.5
2022-12-26T16:27:11.784Z,6.4
2022-12-26T16:30:21.213Z,6.4
2022-12-26T16:33:11.862Z,6.2
2022-12-26T16:36:12.562Z,6.1
2022-12-26T16:39:11.775Z,6.1
2022-12-26T16:42:11.867Z,6.1
2022-12-26T16:45:11.830Z,6.1
2022-12-26T16:48:11.863Z,6
2022-12-26T16:51:12.468Z,5.9
2022-12-26T16:54:11.840Z,5.7
2022-12-26T16:57:11.833Z,5.6
2022-12-26T17:00:11.840Z,5.6
2022-12-26T17:03:13.185Z,5.6
2022-12-26T17:06:11.790Z,5.6
2022-12-26T17:09:11.810Z,5.7
2022-12-26T17:12:11.836Z,5.7
2022-12-26T17:15:12.007Z,5.7
2022-12-26T17:18:11.912Z,5.7
2022-12-26T17:21:11.780Z,5.9
2022-12-26T17:24:11.889Z,5.9
2022-12-26T17:27:11.788Z,5.9
2022-12-26T17:30:11.883Z,5.7
2022-12-26T17:33:11.894Z,5.7
2022-12-26T17:39:11.909Z,5.7
2022-12-26T17:42:11.920Z,5.6
2022-12-26T17:45:11.868Z,5.6
2022-12-26T17:48:11.815Z,5.5
2022-12-26T17:51:11.742Z,5.5
2022-12-26T17:54:11.914Z,5.4
2022-12-26T17:57:11.827Z,5.2
2022-12-26T18:00:11.883Z,5.2
2022-12-26T18:03:12.752Z,5.1
2022-12-26T18:06:11.854Z,5.1
2022-12-26T18:09:12.530Z,5
2022-12-26T18:12:11.836Z,5
2022-12-26T18:15:13.973Z,4.9
2022-12-26T18:18:11.846Z,4.9
2022-12-26T18:21:12.763Z,4.6
2022-12-26T18:24:11.907Z,4.6
2022-12-26T18:27:11.922Z,4.5
2022-12-26T18:30:11.921Z,4.4
2022-12-26T18:33:11.816Z,4.4
2022-12-26T18:36:19.012Z,4.4
2022-12-26T18:39:11.915Z,4.2
2022-12-26T18:42:11.879Z,4.1
2022-12-26T18:45:11.798Z,4.1
2022-12-26T18:48:11.851Z,4
2022-12-26T18:51:11.806Z,3.9
2022-12-26T18:54:11.836Z,3.9
2022-12-26T18:57:11.819Z,3.9
2022-12-26T19:00:11.831Z,3.7
2022-12-26T19:03:11.760Z,3.7
2022-12-26T19:06:11.793Z,3.6
2022-12-26T19:09:12.022Z,3.6
2022-12-26T19:12:11.775Z,3.5
2022-12-26T19:15:11.775Z,3.5
2022-12-26T19:18:11.833Z,3.4
2022-12-26T19:21:11.759Z,3.2
2022-12-26T19:24:11.818Z,3.2
2022-12-26T19:27:11.892Z,3.2
2022-12-26T19:30:11.830Z,3.1
2022-12-26T19:33:11.829Z,3
2022-12-26T19:36:12.834Z,3
2022-12-26T19:39:11.747Z,2.9
2022-12-26T19:42:11.830Z,2.7
2022-12-26T19:45:11.896Z,2.6
2022-12-26T19:48:11.852Z,2.6
2022-12-26T19:51:11.779Z,2.5
2022-12-26T19:54:11.823Z,2.5
2022-12-26T19:57:11.750Z,2.4
2022-12-26T20:00:11.845Z,2.2
2022-12-26T20:03:12.131Z,2.2
2022-12-26T20:06:11.829Z,2.2
2022-12-26T20:09:11.850Z,2.2
2022-12-26T20:12:11.868Z,2.2
2022-12-26T20:15:11.873Z,2.2
2022-12-26T20:18:17.427Z,2.4
2022-12-26T20:21:11.807Z,2.6
2022-12-26T20:24:11.824Z,2.7
2022-12-26T20:27:11.836Z,3
2022-12-26T20:30:11.840Z,3.1
2022-12-26T20:33:11.803Z,3.2
2022-12-26T20:36:11.859Z,3.4
2022-12-26T20:39:11.901Z,3.5
2022-12-26T20:42:11.774Z,3.6
2022-12-26T20:45:11.786Z,3.7
2022-12-26T20:48:11.746Z,3.9
2022-12-26T20:51:11.768Z,3.9
2022-12-26T20:54:12.766Z,4
2022-12-26T20:57:12.081Z,4
2022-12-26T21:00:11.951Z,4.1
2022-12-26T21:03:12.272Z,4.1
2022-12-26T21:06:12.458Z,4.2
2022-12-26T21:09:13.045Z,4.2
2022-12-26T21:12:13.913Z,4.4
2022-12-26T21:15:13.202Z,4.2
2022-12-26T21:18:12.214Z,4.4
2022-12-26T21:21:12.446Z,4.4
2022-12-26T21:25:17.193Z,4.4
2022-12-26T21:27:12.444Z,4.4
2022-12-26T21:30:12.657Z,4.4
2022-12-26T21:33:12.528Z,4.5
2022-12-26T21:39:12.301Z,4.2
2022-12-26T21:42:12.217Z,4
2022-12-26T21:45:12.563Z,4
2022-12-26T21:48:12.171Z,3.9
2022-12-26T21:51:12.153Z,3.9
2022-12-26T21:54:12.172Z,3.7
2022-12-26T21:57:12.317Z,3.9
2022-12-26T22:00:12.290Z,3.9
2022-12-26T22:03:12.819Z,4
2022-12-26T22:06:12.029Z,4.1
2022-12-26T22:09:12.192Z,4.2
2022-12-26T22:12:12.815Z,4.1
2022-12-26T22:15:12.177Z,4
2022-12-26T22:18:12.053Z,3.7
2022-12-26T22:21:12.189Z,3.6
2022-12-26T22:24:12.099Z,3.5
2022-12-26T22:27:12.091Z,3.4
2022-12-26T22:30:12.091Z,3.2
2022-12-26T22:33:12.176Z,3.2
2022-12-26T22:36:12.198Z,3.1
2022-12-26T22:39:12.211Z,3.1
2022-12-26T22:42:14.501Z,3.2
2022-12-26T22:45:12.039Z,3.1
2022-12-26T22:48:12.197Z,3.1
2022-12-26T22:51:12.010Z,3
2022-12-26T22:54:12.123Z,3
2022-12-26T22:57:12.112Z,2.9
2022-12-26T23:00:22.534Z,2.9
2022-12-26T23:03:12.740Z,2.7
2022-12-26T23:06:12.119Z,2.7
2022-12-26T23:09:12.145Z,2.7
2022-12-26T23:12:12.141Z,2.7
2022-12-26T23:15:12.095Z,2.6
2022-12-26T23:18:12.091Z,2.6
2022-12-26T23:21:12.075Z,2.6
2022-12-26T23:24:12.116Z,2.6
2022-12-26T23:27:18.972Z,2.5
2022-12-26T23:30:12.112Z,2.4
2022-12-26T23:33:12.158Z,2.5
2022-12-26T23:36:12.153Z,2.5
2022-12-26T23:39:12.011Z,2.6
2022-12-26T23:42:12.025Z,2.6
2022-12-26T23:45:12.174Z,2.6
2022-12-26T23:48:12.096Z,2.6
2022-12-26T23:51:12.134Z,2.7
2022-12-26T23:54:12.153Z,2.7
2022-12-26T23:57:12.119Z,2.7
